Time;durP1;ratioP1;P1;durP2;ratioP2;P2;SDS_P1;SDS_P2;PMS_P1;PMS_P2;Temp;Humidity;BMP_temperature;BMP_pressure;BME280_temperature;BME280_humidity;BME280_pressure;Samples;Min_cycle;Max_cycle;Signal;HPM_P1;HPM_P2
2024/01/25 00:01:37;;;;;;;29.15;6.95;;;;;;;6.84;100.00;102805.56;4993018;28;20062;-84
2024/01/25 00:04:03;;;;;;;27.52;7.18;;;;;;;6.69;100.00;102788.69;4993216;28;20031;-83
2024/01/25 00:06:28;;;;;;;29.52;7.32;;;;;;;6.37;100.00;102736.97;4993197;28;20375;-82
2024/01/25 00:08:54;;;;;;;31.58;6.60;;;;;;;6.68;100.00;102793.81;4993275;28;20037;-84
2024/01/25 00:11:19;;;;;;;31.08;5.90;;;;;;;6.64;100.00;102802.44;4993187;28;20026;-82
2024/01/25 00:13:44;;;;;;;28.27;6.65;;;;;;;6.63;100.00;102805.88;4993250;28;20036;-82
2024/01/25 00:16:09;;;;;;;27.40;6.22;;;;;;;6.52;100.00;102788.94;4992864;28;20038;-83
2024/01/25 00:18:35;;;;;;;27.85;6.45;;;;;;;6.28;100.00;102751.63;4993238;28;20485;-83
2024/01/25 00:21:00;;;;;;;33.63;7.15;;;;;;;6.48;100.00;102804.38;4993074;28;20030;-84
2024/01/25 00:23:26;;;;;;;32.95;7.47;;;;;;;6.43;100.00;102819.00;4992948;28;20081;-83
2024/01/25 00:25:51;;;;;;;32.85;7.55;;;;;;;6.40;100.00;102813.94;4974922;28;20050;-83
2024/01/25 00:28:17;;;;;;;32.00;6.70;;;;;;;6.33;100.00;102816.56;4993083;28;20459;-84
2024/01/25 00:30:42;;;;;;;30.92;6.70;;;;;;;6.28;100.00;102805.50;4992677;28;20038;-83
2024/01/25 00:33:07;;;;;;;25.80;7.35;;;;;;;6.29;100.00;102808.91;4993137;28;20347;-83
2024/01/25 00:35:33;;;;;;;29.00;6.40;;;;;;;6.04;100.00;102770.78;4993000;28;20161;-82
2024/01/25 00:38:00;;;;;;;32.55;7.18;;;;;;;6.06;100.00;102782.72;4992772;28;20030;-84
2024/01/25 00:40:25;;;;;;;27.40;6.28;;;;;;;5.98;100.00;102765.72;4992991;28;20042;-84
2024/01/25 00:42:54;;;;;;;29.52;7.20;;;;;;;6.16;100.00;102805.66;4992891;28;20030;-83
2024/01/25 00:45:20;;;;;;;31.85;7.00;;;;;;;6.16;100.00;102820.22;4992725;28;20383;-83
2024/01/25 00:47:46;;;;;;;33.80;6.50;;;;;;;6.12;100.00;102823.69;4992859;28;20030;-83
2024/01/25 00:50:12;;;;;;;26.70;7.05;;;;;;;5.87;100.00;102793.16;4992547;28;20034;-83
2024/01/25 00:52:38;;;;;;;38.88;8.23;;;;;;;5.99;100.00;102812.72;4992742;28;20089;-82
2024/01/25 00:55:05;;;;;;;30.40;6.50;;;;;;;5.72;100.00;102771.13;4992766;28;20026;-83
2024/01/25 00:57:31;;;;;;;37.63;7.47;;;;;;;6.01;100.00;102826.41;4992664;28;20085;-84
2024/01/25 00:59:56;;;;;;;30.85;7.45;;;;;;;5.75;100.00;102789.03;4992751;28;20037;-83
2024/01/25 01:02:22;;;;;;;36.63;7.57;;;;;;;5.58;100.00;102754.22;4990985;28;20548;-83
2024/01/25 01:04:48;;;;;;;28.20;6.82;;;;;;;5.96;100.00;102829.00;4991508;28;20053;-83
2024/01/25 01:07:14;;;;;;;40.38;8.23;;;;;;;5.61;100.00;102780.66;4992711;28;20482;-84
2024/01/25 01:09:39;;;;;;;38.17;8.02;;;;;;;5.88;100.00;102829.91;4992600;28;20506;-83
2024/01/25 01:12:06;;;;;;;30.73;7.47;;;;;;;5.84;100.00;102834.25;4992535;28;20022;-84
2024/01/25 01:14:32;;;;;;;27.33;6.25;;;;;;;5.80;100.00;102835.16;4992699;28;20037;-84
2024/01/25 01:16:57;;;;;;;34.08;6.95;;;;;;;5.75;100.00;102837.75;4992618;28;20022;-84
2024/01/25 01:19:22;;;;;;;30.60;6.95;;;;;;;5.70;100.00;102836.97;4992619;28;20113;-83
2024/01/25 01:21:48;;;;;;;31.90;7.55;;;;;;;5.54;100.00;102814.06;4992587;28;20061;-83
2024/01/25 01:24:13;;;;;;;25.17;6.75;;;;;;;5.57;100.00;102825.13;4992582;28;20134;-84
2024/01/25 01:26:38;;;;;;;32.40;7.25;;;;;;;5.59;100.00;102828.50;4992440;28;20513;-83
2024/01/25 01:29:04;;;;;;;37.30;7.13;;;;;;;5.44;100.00;102813.31;4990855;28;20092;-82
2024/01/25 01:31:30;;;;;;;34.33;6.85;;;;;;;5.52;100.00;102838.84;4992311;28;20038;-82
2024/01/25 01:33:55;;;;;;;33.05;7.47;;;;;;;5.28;100.00;102806.63;4993538;28;20355;-83
2024/01/25 01:36:20;;;;;;;29.63;7.25;;;;;;;5.37;100.00;102833.00;4995737;28;20371;-83
2024/01/25 01:38:46;;;;;;;31.75;7.72;;;;;;;5.14;100.00;102817.84;4995817;28;20331;-83
2024/01/25 01:41:12;;;;;;;32.20;6.82;;;;;;;5.28;100.00;102829.66;4995787;28;20490;-82
2024/01/25 01:43:38;;;;;;;30.75;7.00;;;;;;;5.27;100.00;102840.78;4995769;28;20109;-82
2024/01/25 01:46:11;;;;;;;28.30;6.60;;;;;;;5.12;100.00;102831.53;4995693;28;20149;-82
2024/01/25 01:48:38;;;;;;;33.20;7.43;;;;;;;5.23;100.00;102863.03;4995461;28;20022;-83
2024/01/25 01:51:04;;;;;;;29.58;6.60;;;;;;;5.03;100.00;102836.72;4995598;28;20023;-83
2024/01/25 01:53:32;;;;;;;32.90;6.35;;;;;;;4.96;100.00;102829.94;4995747;28;20418;-84
2024/01/25 01:55:57;;;;;;;32.10;7.18;;;;;;;5.13;100.00;102874.19;4995665;28;20022;-84
2024/01/25 01:58:24;;;;;;;35.15;7.82;;;;;;;5.03;100.00;102854.66;4995458;28;20057;-83
2024/01/25 02:00:50;;;;;;;36.60;7.18;;;;;;;5.03;100.00;102873.41;4995378;28;20026;-84
2024/01/25 02:03:15;;;;;;;33.13;7.45;;;;;;;4.82;100.00;102845.41;4995372;28;20493;-84
2024/01/25 02:05:41;;;;;;;30.15;7.18;;;;;;;4.71;100.00;102845.44;4995029;28;20113;-82
2024/01/25 02:08:07;;;;;;;34.08;7.53;;;;;;;4.97;100.00;102882.84;4995192;28;20030;-83
2024/01/25 02:10:32;;;;;;;37.72;8.27;;;;;;;4.70;100.00;102851.44;4995156;28;20470;-82
2024/01/25 02:12:57;;;;;;;40.35;8.48;;;;;;;4.82;100.00;102888.94;4977156;28;20558;-83
2024/01/25 02:15:23;;;;;;;32.47;7.18;;;;;;;4.86;100.00;102893.16;4995148;28;20109;-84
2024/01/25 02:17:49;;;;;;;39.10;7.03;;;;;;;4.67;100.00;102864.25;4977728;28;20495;-84
2024/01/25 02:20:14;;;;;;;37.38;7.50;;;;;;;4.45;100.00;102837.94;4995291;28;20030;-84
2024/01/25 02:22:39;;;;;;;36.05;7.93;;;;;;;4.81;100.00;102902.56;4994971;28;20030;-84
2024/01/25 02:25:05;;;;;;;35.58;8.07;;;;;;;4.79;100.00;102901.72;4994592;28;20047;-84
2024/01/25 02:27:30;;;;;;;35.70;7.75;;;;;;;4.77;100.00;102901.72;4995104;28;20042;-84
2024/01/25 02:29:58;;;;;;;38.00;7.30;;;;;;;4.60;100.00;102883.06;4994930;28;20022;-84
2024/01/25 02:32:24;;;;;;;38.25;7.60;;;;;;;4.71;100.00;102900.91;4994732;28;20065;-84
2024/01/25 02:34:49;;;;;;;33.13;7.85;;;;;;;4.70;100.00;102900.06;4994745;28;20108;-84
2024/01/25 02:37:14;;;;;;;37.80;8.32;;;;;;;4.54;100.00;102878.84;4994253;28;20161;-85
2024/01/25 02:39:40;;;;;;;45.10;8.43;;;;;;;4.37;100.00;102847.34;4994976;28;20253;-84
2024/01/25 02:42:05;;;;;;;38.60;7.40;;;;;;;3.57;100.00;102721.59;4976331;28;20038;-85
2024/01/25 02:44:30;;;;;;;35.97;7.72;;;;;;;3.87;100.00;102788.78;4994583;28;20052;-84
2024/01/25 02:46:56;;;;;;;43.40;7.97;;;;;;;3.91;100.00;102790.44;4994591;28;20441;-84
2024/01/25 02:49:23;;;;;;;38.42;7.93;;;;;;;3.86;100.00;102784.53;4994480;28;20022;-84
2024/01/25 02:51:48;;;;;;;46.40;7.80;;;;;;;4.51;100.00;102901.84;4994277;28;20419;-84
2024/01/25 02:54:13;;;;;;;39.22;9.02;;;;;;;4.51;100.00;102911.25;4994256;28;20069;-85
2024/01/25 02:56:39;;;;;;;38.55;7.25;;;;;;;4.36;100.00;102878.91;4976508;28;20038;-84
2024/01/25 02:59:04;;;;;;;38.80;7.75;;;;;;;3.97;100.00;102810.88;4992769;28;20042;-83
2024/01/25 03:01:41;;;;;;;39.80;7.60;;;;;;;4.46;100.00;102897.63;4976345;28;20042;-84
2024/01/25 03:04:06;;;;;;;39.60;7.32;;;;;;;4.07;100.00;102845.78;4994182;28;20053;-84
2024/01/25 03:06:32;;;;;;;36.72;7.50;;;;;;;4.40;100.00;102906.16;4994450;28;20102;-83
2024/01/25 03:08:57;;;;;;;42.05;9.00;;;;;;;4.40;100.00;102906.16;4994159;28;20077;-84
2024/01/25 03:11:22;;;;;;;40.88;7.03;;;;;;;4.35;100.00;102901.94;4994227;28;20061;-83
2024/01/25 03:13:47;;;;;;;37.30;6.85;;;;;;;4.16;100.00;102870.47;4994179;28;20437;-83
2024/01/25 03:16:13;;;;;;;35.22;8.18;;;;;;;4.19;100.00;102873.84;4976364;28;20035;-85
2024/01/25 03:18:38;;;;;;;43.38;8.55;;;;;;;4.05;100.00;102855.16;4993967;28;20033;-84
2024/01/25 03:21:04;;;;;;;37.30;7.35;;;;;;;3.82;100.00;102821.16;4976529;28;20041;-84
2024/01/25 03:23:29;;;;;;;37.75;6.97;;;;;;;4.23;100.00;102895.19;4992151;28;20482;-85
2024/01/25 03:25:54;;;;;;;33.85;7.95;;;;;;;4.17;100.00;102892.63;4993947;28;20045;-85
2024/01/25 03:28:20;;;;;;;29.35;7.65;;;;;;;4.12;100.00;102890.06;4993958;28;20041;-84
2024/01/25 03:30:45;;;;;;;37.60;7.43;;;;;;;4.14;100.00;102906.28;4993852;28;20029;-84
2024/01/25 03:33:11;;;;;;;35.70;8.30;;;;;;;4.07;100.00;102899.47;4993724;28;20052;-84
2024/01/25 03:35:36;;;;;;;31.73;6.55;;;;;;;4.06;100.00;102902.88;4993761;28;20462;-83
2024/01/25 03:38:01;;;;;;;30.60;6.63;;;;;;;3.99;100.00;102907.16;4993921;28;20475;-84
2024/01/25 03:40:27;;;;;;;30.92;6.97;;;;;;;3.95;100.00;102905.47;4993782;28;20161;-84
2024/01/25 03:42:52;;;;;;;39.50;6.97;;;;;;;3.54;100.00;102849.34;4993785;28;20022;-83
2024/01/25 03:45:18;;;;;;;42.30;7.57;;;;;;;3.85;100.00;102920.81;4991167;28;20038;-82
2024/01/25 03:47:44;;;;;;;45.45;7.35;;;;;;;3.83;100.00;102920.81;4993392;28;20034;-84
2024/01/25 03:50:10;;;;;;;41.25;7.00;;;;;;;3.76;100.00;102919.13;4993429;28;20026;-84
2024/01/25 03:52:35;;;;;;;33.10;7.07;;;;;;;3.56;100.00;102891.06;4993273;28;20046;-84
2024/01/25 03:55:00;;;;;;;33.33;6.40;;;;;;;3.52;100.00;102891.88;4993425;28;20030;-84
2024/01/25 03:57:25;;;;;;;48.83;8.05;;;;;;;3.65;100.00;102918.28;5011722;23;20131;-84
2024/01/25 03:59:51;;;;;;;35.17;7.82;;;;;;;3.31;100.00;102849.34;5012948;28;20057;-83
2024/01/25 04:02:16;;;;;;;39.88;7.90;;;;;;;3.66;100.00;102910.63;5012844;28;20053;-84
2024/01/25 04:04:57;;;;;;;31.70;6.55;;;;;;;2.21;100.00;102669.88;5026569;23;20081;-85
2024/01/25 04:10:44;;;;;;;39.83;7.55;;;;;;;2.43;100.00;102735.31;5012833;28;20061;-83
2024/01/25 04:13:09;;;;;;;32.47;7.07;;;;;;;2.67;100.00;102774.47;5012631;28;20026;-84
2024/01/25 04:15:44;;;;;;;36.50;7.68;;;;;;;3.51;100.00;102925.09;5012429;28;20065;-85
2024/01/25 04:18:18;;;;;;;36.38;7.93;;;;;;;2.86;100.00;102822.97;5069785;23;20134;-84
2024/01/25 04:24:10;;;;;;;36.28;6.53;;;;;;;1.99;100.00;102694.47;4972934;28;20046;-84
2024/01/25 04:26:47;;;;;;;39.53;7.65;;;;;;;2.99;100.00;102864.66;4973569;28;20026;-83
2024/01/25 04:29:12;;;;;;;34.90;8.88;;;;;;;2.50;100.00;102777.00;4973370;28;20481;-84
2024/01/25 04:31:53;;;;;;;34.47;7.13;;;;;;;1.86;100.00;102670.63;4973596;28;20037;-84
2024/01/25 04:34:18;;;;;;;37.92;7.85;;;;;;;2.81;100.00;102828.91;4973380;28;20471;-85
2024/01/25 04:36:43;;;;;;;33.38;6.68;;;;;;;3.33;100.00;102916.56;4955874;28;20039;-83
2024/01/25 04:39:09;;;;;;;32.67;6.68;;;;;;;3.17;100.00;102897.84;4973323;28;20031;-82
2024/01/25 04:41:35;;;;;;;38.63;8.98;;;;;;;3.31;100.00;102917.44;4973565;28;20031;-83
2024/01/25 04:44:01;;;;;;;38.75;6.95;;;;;;;3.18;100.00;102901.25;5002658;23;20045;-85
2024/01/25 04:46:26;;;;;;;39.00;7.82;;;;;;;3.30;100.00;102921.69;5032138;28;20121;-84
2024/01/25 04:48:52;;;;;;;39.97;8.82;;;;;;;3.21;100.00;102908.91;5014054;28;20034;-84
2024/01/25 04:51:18;;;;;;;37.88;7.28;;;;;;;3.07;100.00;102883.38;5031955;28;20120;-84
2024/01/25 04:53:43;;;;;;;37.13;7.93;;;;;;;3.26;100.00;102911.47;5032303;28;20025;-84
2024/01/25 04:58:54;;;;;;;34.08;7.88;;;;;;;2.72;100.00;102833.97;5010896;28;20053;-84
2024/01/25 05:01:22;;;;;;;35.50;7.25;;;;;;;2.36;100.00;102791.38;5012451;28;20036;-84
2024/01/25 05:03:59;;;;;;;38.72;7.80;;;;;;;1.86;100.00;102715.63;5012301;28;20382;-84
2024/01/25 05:06:27;;;;;;;47.50;8.57;;;;;;;1.79;100.00;102696.09;5012540;28;20026;-84
2024/01/25 05:08:53;;;;;;;38.70;8.07;;;;;;;2.66;100.00;102846.75;5013267;28;20527;-85
2024/01/25 05:11:18;;;;;;;31.50;7.50;;;;;;;2.59;100.00;102833.13;5015840;28;20124;-84
2024/01/25 05:13:59;;;;;;;34.45;7.75;;;;;;;3.15;100.00;102919.97;5015941;28;20022;-85
2024/01/25 05:16:35;;;;;;;42.00;8.13;;;;;;;2.58;100.00;102824.63;4971385;28;20088;-85
2024/01/25 05:19:00;;;;;;;34.15;7.80;;;;;;;2.14;100.00;102742.06;5015777;28;20390;-84
2024/01/25 05:21:38;;;;;;;40.45;8.45;;;;;;;1.87;100.00;102719.88;5015697;28;20076;-83
2024/01/25 05:24:15;;;;;;;46.25;8.07;;;;;;;1.79;100.00;102701.19;5015673;28;20109;-82
2024/01/25 05:26:40;;;;;;;38.38;8.82;;;;;;;2.71;100.00;102855.25;4996389;23;20066;-82
2024/01/25 05:29:05;;;;;;;38.17;9.10;;;;;;;3.01;100.00;102910.59;4976567;28;20027;-83
2024/01/25 05:31:31;;;;;;;37.28;8.15;;;;;;;3.01;100.00;102913.13;4976536;28;20062;-83
2024/01/25 05:33:56;;;;;;;34.28;7.30;;;;;;;2.95;100.00;102914.00;4976607;28;20037;-85
2024/01/25 05:36:23;;;;;;;39.80;7.60;;;;;;;2.94;100.00;102921.63;4976604;28;20510;-83
2024/01/25 05:38:48;;;;;;;39.47;8.30;;;;;;;2.66;100.00;102877.34;4976302;28;20026;-85
2024/01/25 05:41:13;;;;;;;40.15;8.40;;;;;;;2.92;100.00;102913.13;4976462;28;20027;-83
2024/01/25 05:43:38;;;;;;;41.00;8.85;;;;;;;2.96;100.00;102923.34;4976314;28;20089;-83
2024/01/25 05:46:04;;;;;;;37.47;9.13;;;;;;;2.62;100.00;102867.97;4976492;28;20134;-83
2024/01/25 05:48:29;;;;;;;35.10;8.95;;;;;;;2.91;100.00;102927.56;4976346;28;20561;-82
2024/01/25 05:50:54;;;;;;;43.17;8.93;;;;;;;2.85;100.00;102932.66;4976059;28;20080;-83
2024/01/25 05:53:21;;;;;;;49.00;10.13;;;;;;;2.77;100.00;102914.78;4942577;28;20034;-80
2024/01/25 05:55:46;;;;;;;44.30;8.65;;;;;;;2.87;100.00;102929.28;4958613;28;20030;-81
2024/01/25 05:58:12;;;;;;;39.35;8.57;;;;;;;2.70;100.00;102917.31;4976169;28;20054;-82
2024/01/25 06:00:37;;;;;;;34.88;8.43;;;;;;;2.70;100.00;102923.28;5060852;23;20456;-83
2024/01/25 06:03:02;;;;;;;33.22;8.90;;;;;;;2.28;100.00;102857.66;5035212;28;20029;-84
2024/01/25 06:05:28;;;;;;;31.55;7.53;;;;;;;2.44;100.00;102877.25;5034720;28;20444;-82
2024/01/25 06:07:53;;;;;;;41.08;8.73;;;;;;;2.77;100.00;102931.81;5034603;28;20025;-83
2024/01/25 06:10:18;;;;;;;46.55;8.75;;;;;;;2.69;100.00;102920.72;5016386;28;20056;-81
2024/01/25 06:12:46;;;;;;;40.65;9.23;;;;;;;2.46;100.00;102892.56;5034615;28;20030;-81
2024/01/25 06:15:11;;;;;;;37.42;8.50;;;;;;;2.47;100.00;102902.78;5034461;28;20402;-82
2024/01/25 06:17:37;;;;;;;37.00;8.73;;;;;;;2.63;100.00;102936.00;5034809;28;20057;-82
2024/01/25 06:20:03;;;;;;;34.55;7.40;;;;;;;2.56;100.00;102930.88;5034016;28;20033;-84
2024/01/25 06:22:28;;;;;;;33.45;7.95;;;;;;;2.54;100.00;102927.44;5034273;28;20041;-85
2024/01/25 06:24:53;;;;;;;45.47;8.38;;;;;;;2.51;100.00;102937.66;5034022;28;20033;-84
2024/01/25 06:27:19;;;;;;;29.50;7.43;;;;;;;2.32;100.00;102915.47;5034272;28;20038;-83
2024/01/25 06:29:44;;;;;;;36.80;9.00;;;;;;;2.44;100.00;102942.69;5034183;28;20026;-82
2024/01/25 06:32:10;;;;;;;34.88;7.80;;;;;;;2.16;100.00;102906.88;5034069;28;20033;-84
2024/01/25 06:34:35;;;;;;;36.08;9.60;;;;;;;2.37;100.00;102948.66;5016316;28;20047;-84
2024/01/25 06:37:01;;;;;;;34.53;8.48;;;;;;;2.24;100.00;102935.81;5034118;28;20065;-84
2024/01/25 06:39:26;;;;;;;37.55;8.88;;;;;;;2.23;100.00;102946.00;5033886;28;20052;-83
2024/01/25 06:41:51;;;;;;;32.85;8.57;;;;;;;1.88;100.00;102892.28;5033880;28;20100;-83
2024/01/25 06:44:17;;;;;;;33.88;7.93;;;;;;;2.07;100.00;102934.88;5033947;28;20442;-84
2024/01/25 06:46:42;;;;;;;30.40;8.95;;;;;;;2.18;100.00;102970.63;5033708;28;20520;-84
2024/01/25 06:49:08;;;;;;;30.67;7.47;;;;;;;2.12;100.00;102963.78;5016116;28;20456;-84
2024/01/25 06:51:35;;;;;;;30.85;7.00;;;;;;;2.07;100.00;102967.16;5033725;28;20469;-84
2024/01/25 06:54:01;;;;;;;32.83;7.82;;;;;;;1.99;100.00;102970.50;5016084;28;20025;-85
2024/01/25 06:56:26;;;;;;;33.03;7.72;;;;;;;1.89;100.00;102942.41;5033427;28;20303;-84
2024/01/25 06:58:51;;;;;;;30.65;7.95;;;;;;;1.96;100.00;102965.38;5033696;28;20028;-83
2024/01/25 07:01:23;;;;;;;27.27;7.22;;;;;;;1.61;100.00;102908.22;5033680;28;20069;-85
2024/01/25 07:03:50;;;;;;;;;;;;;;;1.94;100.00;102966.19;5033979;28;20095;-82
2024/01/25 07:06:16;;;;;;;31.35;7.88;;;;;;;1.78;100.00;102949.97;5033428;28;19909;-85
2024/01/25 07:08:41;;;;;;;29.80;8.43;;;;;;;1.86;100.00;102965.28;5033528;28;20036;-82
2024/01/25 07:11:06;;;;;;;29.55;9.45;;;;;;;1.59;100.00;102920.09;5494028;22;20004;-85
2024/01/25 07:13:35;;;;;;;37.00;11.25;;;;;;;1.34;100.00;102875.75;4973940;28;20487;-82
2024/01/25 07:16:13;;;;;;;28.33;8.10;;;;;;;0.41;100.00;102718.13;4974346;28;20387;-82
2024/01/25 07:18:43;;;;;;;27.67;8.30;;;;;;;0.20;100.00;102679.81;4974343;28;20487;-82
2024/01/25 07:21:08;;;;;;;28.92;8.32;;;;;;;1.11;100.00;102837.41;4956919;28;20077;-81
2024/01/25 07:23:40;;;;;;;26.73;8.70;;;;;;;1.10;100.00;102844.19;4974547;28;20035;-80
2024/01/25 07:26:05;;;;;;;32.40;9.85;;;;;;;0.73;100.00;102784.50;4974230;28;20034;-82
2024/01/25 07:28:31;;;;;;;28.40;8.15;;;;;;;1.76;100.00;102966.91;4974019;28;20030;-81
2024/01/25 07:31:14;;;;;;;32.53;9.38;;;;;;;1.58;100.00;102942.19;4973513;28;20035;-81
2024/01/25 07:33:45;;;;;;;36.20;9.13;;;;;;;0.86;100.00;102824.47;4974461;28;20394;-79
2024/01/25 07:36:20;;;;;;;34.72;10.65;;;;;;;0.75;100.00;102802.31;4974267;28;20031;-81
2024/01/25 07:38:46;;;;;;;35.50;10.93;;;;;;;1.87;100.00;102988.25;4974197;28;20030;-80
2024/01/25 07:41:12;;;;;;;35.85;9.85;;;;;;;1.64;100.00;102933.72;4973928;28;20026;-80
2024/01/25 07:43:38;;;;;;;28.38;10.90;;;;;;;1.91;100.00;102984.88;4956356;28;20042;-77
2024/01/25 07:46:03;;;;;;;32.60;11.52;;;;;;;1.95;100.00;102978.94;4974237;28;20382;-79
2024/01/25 07:48:29;;;;;;;34.30;11.43;;;;;;;2.04;100.00;102975.63;4972820;28;20038;-76
2024/01/25 07:50:54;;;;;;;40.97;12.73;;;;;;;2.17;100.00;102958.72;4973824;28;20499;-77
2024/01/25 07:53:20;;;;;;;42.45;13.02;;;;;;;2.18;100.00;102933.25;4973959;28;20030;-76
2024/01/25 07:55:45;;;;;;;38.85;12.57;;;;;;;2.48;100.00;102952.94;4973851;28;20027;-79
2024/01/25 07:58:10;;;;;;;49.92;13.60;;;;;;;2.59;100.00;102958.09;4973933;28;20049;-79
2024/01/25 08:00:36;;;;;;;43.50;12.50;;;;;;;2.35;100.00;102914.63;4974215;28;20023;-78
2024/01/25 08:03:01;;;;;;;45.67;13.20;;;;;;;2.55;100.00;102948.69;4973956;28;20458;-79
2024/01/25 08:05:26;;;;;;;46.15;12.15;;;;;;;2.75;100.00;102975.19;4973880;28;20106;-77
2024/01/25 08:07:52;;;;;;;47.92;12.68;;;;;;;2.83;100.00;102988.78;4973957;28;20046;-78
2024/01/25 08:10:17;;;;;;;46.28;13.02;;;;;;;2.59;100.00;102935.97;4973837;28;20511;-78
2024/01/25 08:12:44;;;;;;;39.00;11.20;;;;;;;2.67;100.00;102935.16;4986605;28;20494;-78
2024/01/25 08:15:10;;;;;;;52.58;12.20;;;;;;;2.84;100.00;102957.31;4991718;28;20100;-78
2024/01/25 08:17:37;;;;;;;44.30;11.77;;;;;;;2.72;100.00;102926.66;4993213;28;20081;-78
2024/01/25 08:20:04;;;;;;;46.30;12.20;;;;;;;3.05;100.00;102976.97;4993033;28;20057;-78
2024/01/25 08:22:29;;;;;;;47.08;12.30;;;;;;;2.93;100.00;102951.38;4992990;28;20467;-78
2024/01/25 08:24:55;;;;;;;40.65;11.98;;;;;;;3.13;100.00;102982.06;4975550;28;20031;-77
2024/01/25 08:27:20;;;;;;;46.08;12.02;;;;;;;3.19;100.00;102983.81;4975325;28;20386;-79
2024/01/25 08:29:45;;;;;;;44.95;12.68;;;;;;;2.96;100.00;102942.91;4992697;28;20057;-77
2024/01/25 08:32:11;;;;;;;44.10;12.02;;;;;;;3.31;100.00;102987.22;4992838;28;20033;-78
2024/01/25 08:34:36;;;;;;;38.28;12.68;;;;;;;3.16;100.00;102933.59;4992941;28;20034;-77
2024/01/25 08:37:01;;;;;;;44.25;12.88;;;;;;;3.27;100.00;102918.28;4991422;28;20069;-80
2024/01/25 08:39:26;;;;;;;44.50;12.93;;;;;;;3.50;100.00;102948.94;4975926;28;20034;-82
2024/01/25 08:41:53;;;;;;;44.30;12.45;;;;;;;3.58;100.00;102960.88;4992587;28;20190;-80
2024/01/25 08:44:18;;;;;;;44.25;12.00;;;;;;;3.65;100.00;102965.13;4996481;28;20034;-79
2024/01/25 08:47:07;;;;;;;38.50;12.15;;;;;;;3.56;100.00;102929.38;4996534;28;20109;-81
2024/01/25 08:49:38;;;;;;;38.55;13.00;;;;;;;3.77;100.00;102950.66;4996726;28;20032;-79
2024/01/25 08:52:15;;;;;;;46.78;13.02;;;;;;;3.85;100.00;102966.84;4996508;28;20032;-79
2024/01/25 08:54:53;;;;;;;37.40;11.45;;;;;;;2.63;100.00;102763.41;4996509;28;20027;-79
2024/01/25 08:57:31;;;;;;;42.45;13.20;;;;;;;3.52;100.00;102917.44;4978761;28;20034;-78
2024/01/25 08:59:58;;;;;;;38.78;12.80;;;;;;;4.02;100.00;102990.66;4996724;28;20085;-79
2024/01/25 09:02:26;;;;;;;41.10;14.77;;;;;;;3.76;100.00;102941.28;4979281;28;20386;-79
2024/01/25 09:04:53;;;;;;;46.20;14.65;;;;;;;4.14;100.00;102993.22;4996492;28;20031;-79
2024/01/25 09:07:19;;;;;;;50.25;13.90;;;;;;;4.13;100.00;102990.63;4996525;28;20034;-79
2024/01/25 09:09:44;;;;;;;49.65;14.38;;;;;;;4.22;100.00;102995.72;4996244;28;20096;-83
2024/01/25 09:12:11;;;;;;;40.72;14.13;;;;;;;3.86;100.00;102932.75;4996230;28;20137;-81
2024/01/25 09:14:36;;;;;;;42.42;13.82;;;;;;;4.28;100.00;102999.16;4996658;28;20332;-80
2024/01/25 09:17:02;;;;;;;43.95;13.70;;;;;;;4.31;100.00;102993.16;4996302;28;20036;-78
2024/01/25 09:19:27;;;;;;;42.28;13.52;;;;;;;4.24;100.00;102971.03;4996359;28;20105;-79
2024/01/25 09:21:52;;;;;;;40.47;14.57;;;;;;;4.38;100.00;102986.34;4996227;28;20033;-78
2024/01/25 09:24:18;;;;;;;42.05;13.63;;;;;;;4.45;100.00;102999.13;4995977;28;20026;-80
2024/01/25 09:26:43;;;;;;;42.70;14.05;;;;;;;4.36;100.00;102975.25;4996062;28;20022;-78
2024/01/25 09:31:38;;;;;;;40.63;14.55;;;;;;;4.53;100.00;102960.72;4994309;28;20046;-78
2024/01/25 09:34:04;;;;;;;42.50;15.15;;;;;;;4.43;100.00;102941.16;4995940;28;20402;-78
2024/01/25 09:36:29;;;;;;;47.08;15.73;;;;;;;4.84;100.00;102987.88;4995920;28;20463;-78
2024/01/25 09:38:54;;;;;;;41.15;14.15;;;;;;;4.95;100.00;102992.09;4995572;28;20023;-78
2024/01/25 09:41:29;;;;;;;41.97;13.32;;;;;;;4.50;100.00;102896.75;4995566;28;20042;-78
2024/01/25 09:44:00;;;;;;;37.92;13.48;;;;;;;4.98;100.00;102961.34;4995604;28;20109;-77
2024/01/25 09:46:27;;;;;;;39.78;14.38;;;;;;;5.21;100.00;102990.25;4995709;28;20038;-76
2024/01/25 09:48:52;;;;;;;38.80;13.82;;;;;;;5.07;100.00;102954.47;4978040;28;20034;-77
2024/01/25 09:51:18;;;;;;;40.20;13.77;;;;;;;5.37;100.00;102993.56;4995349;28;20034;-80
2024/01/25 09:53:47;;;;;;;31.95;12.95;;;;;;;5.44;100.00;102996.06;4995004;28;20027;-81
2024/01/25 09:56:13;;;;;;;36.00;12.82;;;;;;;5.51;100.00;102990.91;4995196;28;20426;-80
2024/01/25 09:58:42;;;;;;;32.90;13.77;;;;;;;5.59;100.00;102992.53;4995420;28;20026;-80
2024/01/25 10:01:13;;;;;;;33.67;13.75;;;;;;;5.42;100.00;102951.69;4995297;28;20452;-80
2024/01/25 10:03:41;;;;;;;38.25;14.65;;;;;;;5.52;100.00;102949.06;4995484;28;20466;-80
2024/01/25 10:06:08;;;;;;;39.15;14.45;;;;;;;5.81;100.00;102977.00;4995259;28;20382;-80
2024/01/25 10:08:34;;;;;;;36.70;13.77;;;;;;;5.80;100.00;102962.47;4995467;28;20106;-80
2024/01/25 10:10:59;;;;;;;36.10;13.98;;;;;;;5.91;100.00;102978.66;4995556;28;20117;-80
2024/01/25 10:13:26;;;;;;;31.92;13.80;;;;;;;5.84;100.00;102956.47;4995226;28;20073;-80
2024/01/25 10:15:52;;;;;;;29.25;13.65;;;;;;;5.51;100.00;102896.94;4995056;28;20350;-80
2024/01/25 10:18:17;;;;;;;35.83;14.82;;;;;;;5.94;100.00;102964.06;4977676;28;20055;-80
2024/01/25 10:20:43;;;;;;;34.92;15.43;;;;;;;5.97;100.00;102974.31;4994962;28;20018;-78
2024/01/25 10:23:10;;;;;;;35.97;14.38;;;;;;;5.92;100.00;102963.25;4995140;28;20076;-84
2024/01/25 10:25:47;;;;;;;33.22;14.00;;;;;;;5.94;100.00;102966.66;4995160;28;20041;-85
2024/01/25 10:28:15;;;;;;;36.35;13.95;;;;;;;6.10;100.00;102975.06;4994663;28;20018;-82
2024/01/25 10:30:40;;;;;;;35.13;14.23;;;;;;;6.03;100.00;102951.16;4994833;28;20120;-83
2024/01/25 10:33:08;;;;;;;38.03;16.35;;;;;;;6.18;100.00;102954.44;4994640;28;20019;-82
2024/01/25 10:35:55;;;;;;;33.75;14.25;;;;;;;6.25;100.00;102962.06;4977043;28;20049;-86
2024/01/25 10:38:21;;;;;;;32.35;16.35;;;;;;;5.24;100.00;102787.88;4994589;28;20030;-84
2024/01/25 10:40:47;;;;;;;35.22;15.70;;;;;;;6.17;100.00;102932.22;4994581;28;20398;-82
2024/01/25 10:45:48;;;;;;;34.47;16.27;;;;;;;6.17;100.00;102888.59;5058359;23;20521;-72
2024/01/25 10:48:14;;;;;;;35.67;16.17;;;;;;;6.52;100.00;102949.78;5013672;28;20022;-74
2024/01/25 10:50:39;;;;;;;37.15;16.42;;;;;;;6.57;100.00;102945.44;5014087;28;20030;-76
2024/01/25 10:53:07;;;;;;;35.92;16.80;;;;;;;6.53;100.00;102939.50;5014104;28;20030;-77
2024/01/25 10:55:33;;;;;;;40.58;17.50;;;;;;;6.65;100.00;102948.75;5014137;28;20030;-76
2024/01/25 10:57:58;;;;;;;35.35;17.17;;;;;;;6.73;100.00;102933.25;5013962;28;20121;-78
2024/01/25 11:00:23;;;;;;;39.15;16.98;;;;;;;6.77;100.00;102933.19;5013882;28;20065;-76
2024/01/25 11:02:50;;;;;;;40.13;17.25;;;;;;;6.41;100.00;102867.78;5013823;28;20057;-78
2024/01/25 11:05:18;;;;;;;34.63;15.52;;;;;;;6.75;100.00;102923.81;5012578;28;20022;-75
2024/01/25 11:07:47;;;;;;;40.72;16.95;;;;;;;6.80;100.00;102927.19;5013977;28;20018;-75
2024/01/25 11:10:25;;;;;;;35.28;18.30;;;;;;;6.84;100.00;102927.09;5013794;28;20033;-75
2024/01/25 11:12:58;;;;;;;37.67;16.88;;;;;;;6.71;100.00;102883.66;5013584;28;20727;-76
2024/01/25 11:15:31;;;;;;;39.50;16.65;;;;;;;6.96;100.00;102914.94;5013621;28;20160;-75
2024/01/25 11:17:57;;;;;;;35.88;16.38;;;;;;;6.98;100.00;102908.94;5013724;28;20030;-75
2024/01/25 11:20:24;;;;;;;39.67;16.55;;;;;;;7.03;100.00;102907.13;5012190;28;20029;-75
2024/01/25 11:23:02;;;;;;;33.28;16.05;;;;;;;7.05;100.00;102894.25;5014024;28;20512;-76
2024/01/25 11:25:28;;;;;;;37.60;16.15;;;;;;;7.17;100.00;102897.50;5013423;28;20024;-74
2024/01/25 11:27:54;;;;;;;33.85;15.70;;;;;;;7.15;100.00;102863.25;5013358;28;20022;-74